sensor_id;sensor_type;location;lat;lon;timestamp;pressure;altitude;pressure_sealevel;temperature
16956;BMP180;8594;52.052;8.354;2023-04-27T00:01:20;101007.00;;;9.60
16956;BMP180;8594;52.052;8.354;2023-04-27T00:03:47;101004.00;;;9.50
16956;BMP180;8594;52.052;8.354;2023-04-27T00:06:14;101009.00;;;9.80
16956;BMP180;8594;52.052;8.354;2023-04-27T00:08:41;101012.00;;;10.00
16956;BMP180;8594;52.052;8.354;2023-04-27T00:11:09;101008.00;;;10.00
16956;BMP180;8594;52.052;8.354;2023-04-27T00:13:35;101005.00;;;10.20
16956;BMP180;8594;52.052;8.354;2023-04-27T00:16:02;101007.00;;;9.70
16956;BMP180;8594;52.052;8.354;2023-04-27T00:18:30;101006.00;;;9.70
16956;BMP180;8594;52.052;8.354;2023-04-27T00:20:57;101008.00;;;9.60
16956;BMP180;8594;52.052;8.354;2023-04-27T00:23:24;101008.00;;;9.40
16956;BMP180;8594;52.052;8.354;2023-04-27T00:25:52;101007.00;;;9.10
16956;BMP180;8594;52.052;8.354;2023-04-27T00:28:20;101013.00;;;9.40
16956;BMP180;8594;52.052;8.354;2023-04-27T00:30:47;100999.00;;;9.30
16956;BMP180;8594;52.052;8.354;2023-04-27T00:33:16;100999.00;;;9.20
16956;BMP180;8594;52.052;8.354;2023-04-27T00:35:42;100997.00;;;9.30
16956;BMP180;8594;52.052;8.354;2023-04-27T00:38:09;100991.00;;;9.00
16956;BMP180;8594;52.052;8.354;2023-04-27T00:40:37;100997.00;;;8.80
16956;BMP180;8594;52.052;8.354;2023-04-27T00:43:03;100998.00;;;8.80
16956;BMP180;8594;52.052;8.354;2023-04-27T00:45:35;101002.00;;;8.80
16956;BMP180;8594;52.052;8.354;2023-04-27T00:48:03;100999.00;;;9.00
16956;BMP180;8594;52.052;8.354;2023-04-27T00:50:30;100997.00;;;9.00
16956;BMP180;8594;52.052;8.354;2023-04-27T00:52:58;101008.00;;;9.20
16956;BMP180;8594;52.052;8.354;2023-04-27T00:55:25;101001.00;;;8.90
16956;BMP180;8594;52.052;8.354;2023-04-27T00:57:52;101012.00;;;9.20
16956;BMP180;8594;52.052;8.354;2023-04-27T01:00:18;101013.00;;;9.30
16956;BMP180;8594;52.052;8.354;2023-04-27T01:02:47;101009.00;;;9.20
16956;BMP180;8594;52.052;8.354;2023-04-27T01:05:15;101016.00;;;9.50
16956;BMP180;8594;52.052;8.354;2023-04-27T01:07:42;101018.00;;;9.40
16956;BMP180;8594;52.052;8.354;2023-04-27T01:10:09;101020.00;;;9.10
16956;BMP180;8594;52.052;8.354;2023-04-27T01:12:36;101025.00;;;9.00
16956;BMP180;8594;52.052;8.354;2023-04-27T01:15:05;101028.00;;;9.20
16956;BMP180;8594;52.052;8.354;2023-04-27T01:17:32;101032.00;;;9.30
16956;BMP180;8594;52.052;8.354;2023-04-27T01:20:00;101034.00;;;9.10
16956;BMP180;8594;52.052;8.354;2023-04-27T01:22:27;101033.00;;;9.40
16956;BMP180;8594;52.052;8.354;2023-04-27T01:24:55;101036.00;;;9.30
16956;BMP180;8594;52.052;8.354;2023-04-27T01:27:22;101030.00;;;9.60
16956;BMP180;8594;52.052;8.354;2023-04-27T01:29:49;101041.00;;;9.70
16956;BMP180;8594;52.052;8.354;2023-04-27T01:32:15;101054.00;;;9.70
16956;BMP180;8594;52.052;8.354;2023-04-27T01:34:42;101049.00;;;9.40
16956;BMP180;8594;52.052;8.354;2023-04-27T01:37:09;101057.00;;;9.50
16956;BMP180;8594;52.052;8.354;2023-04-27T01:39:37;101055.00;;;9.40
16956;BMP180;8594;52.052;8.354;2023-04-27T01:42:05;101052.00;;;9.50
16956;BMP180;8594;52.052;8.354;2023-04-27T01:44:32;101056.00;;;9.70
16956;BMP180;8594;52.052;8.354;2023-04-27T01:46:58;101056.00;;;9.80
16956;BMP180;8594;52.052;8.354;2023-04-27T01:49:25;101053.00;;;9.30
16956;BMP180;8594;52.052;8.354;2023-04-27T01:51:52;101056.00;;;9.20
16956;BMP180;8594;52.052;8.354;2023-04-27T01:54:19;101055.00;;;8.70
16956;BMP180;8594;52.052;8.354;2023-04-27T01:56:46;101066.00;;;9.00
16956;BMP180;8594;52.052;8.354;2023-04-27T01:59:14;101072.00;;;9.20
16956;BMP180;8594;52.052;8.354;2023-04-27T02:01:40;101066.00;;;8.80
16956;BMP180;8594;52.052;8.354;2023-04-27T02:04:07;101061.00;;;8.50
16956;BMP180;8594;52.052;8.354;2023-04-27T02:06:34;101074.00;;;8.30
16956;BMP180;8594;52.052;8.354;2023-04-27T02:09:01;101072.00;;;8.30
16956;BMP180;8594;52.052;8.354;2023-04-27T02:11:27;101068.00;;;8.30
16956;BMP180;8594;52.052;8.354;2023-04-27T02:13:54;101080.00;;;8.70
16956;BMP180;8594;52.052;8.354;2023-04-27T02:16:22;101079.00;;;8.70
16956;BMP180;8594;52.052;8.354;2023-04-27T02:18:49;101076.00;;;8.70
16956;BMP180;8594;52.052;8.354;2023-04-27T02:21:18;101070.00;;;8.40
16956;BMP180;8594;52.052;8.354;2023-04-27T02:23:45;101070.00;;;8.40
16956;BMP180;8594;52.052;8.354;2023-04-27T02:26:15;101076.00;;;8.30
16956;BMP180;8594;52.052;8.354;2023-04-27T02:28:43;101081.00;;;8.20
16956;BMP180;8594;52.052;8.354;2023-04-27T02:31:10;101079.00;;;8.40
16956;BMP180;8594;52.052;8.354;2023-04-27T02:33:39;101072.00;;;8.50
16956;BMP180;8594;52.052;8.354;2023-04-27T02:36:07;101082.00;;;8.70
16956;BMP180;8594;52.052;8.354;2023-04-27T02:38:34;101082.00;;;8.50
16956;BMP180;8594;52.052;8.354;2023-04-27T02:41:01;101080.00;;;8.90
16956;BMP180;8594;52.052;8.354;2023-04-27T02:43:28;101070.00;;;9.30
16956;BMP180;8594;52.052;8.354;2023-04-27T02:45:55;101072.00;;;8.80
16956;BMP180;8594;52.052;8.354;2023-04-27T02:48:21;101071.00;;;8.90
16956;BMP180;8594;52.052;8.354;2023-04-27T02:50:50;101071.00;;;8.80
16956;BMP180;8594;52.052;8.354;2023-04-27T02:53:16;101079.00;;;8.80
16956;BMP180;8594;52.052;8.354;2023-04-27T02:55:46;101072.00;;;8.80
16956;BMP180;8594;52.052;8.354;2023-04-27T02:58:13;101072.00;;;8.50
16956;BMP180;8594;52.052;8.354;2023-04-27T03:00:41;101066.00;;;8.50
16956;BMP180;8594;52.052;8.354;2023-04-27T03:03:08;101066.00;;;8.50
16956;BMP180;8594;52.052;8.354;2023-04-27T03:05:35;101064.00;;;8.10
16956;BMP180;8594;52.052;8.354;2023-04-27T03:08:04;101061.00;;;8.20
16956;BMP180;8594;52.052;8.354;2023-04-27T03:10:31;101071.00;;;8.30
16956;BMP180;8594;52.052;8.354;2023-04-27T03:12:57;101065.00;;;8.10
16956;BMP180;8594;52.052;8.354;2023-04-27T03:15:24;101069.00;;;8.60
16956;BMP180;8594;52.052;8.354;2023-04-27T03:17:51;101061.00;;;9.00
16956;BMP180;8594;52.052;8.354;2023-04-27T03:20:18;101054.00;;;9.10
16956;BMP180;8594;52.052;8.354;2023-04-27T03:22:45;101059.00;;;9.00
16956;BMP180;8594;52.052;8.354;2023-04-27T03:25:13;101058.00;;;8.80
16956;BMP180;8594;52.052;8.354;2023-04-27T03:27:40;101059.00;;;8.20
16956;BMP180;8594;52.052;8.354;2023-04-27T03:30:09;101053.00;;;7.60
16956;BMP180;8594;52.052;8.354;2023-04-27T03:32:36;101044.00;;;7.40
16956;BMP180;8594;52.052;8.354;2023-04-27T03:35:05;101042.00;;;7.70
16956;BMP180;8594;52.052;8.354;2023-04-27T03:37:32;101047.00;;;7.70
16956;BMP180;8594;52.052;8.354;2023-04-27T03:39:59;101047.00;;;7.70
16956;BMP180;8594;52.052;8.354;2023-04-27T03:42:27;101046.00;;;7.90
16956;BMP180;8594;52.052;8.354;2023-04-27T03:44:54;101043.00;;;7.80
16956;BMP180;8594;52.052;8.354;2023-04-27T03:47:20;101061.00;;;7.90
16956;BMP180;8594;52.052;8.354;2023-04-27T03:49:47;101054.00;;;7.30
16956;BMP180;8594;52.052;8.354;2023-04-27T03:52:14;101051.00;;;5.60
16956;BMP180;8594;52.052;8.354;2023-04-27T03:54:41;101044.00;;;6.60
16956;BMP180;8594;52.052;8.354;2023-04-27T03:57:07;101053.00;;;7.00
16956;BMP180;8594;52.052;8.354;2023-04-27T03:59:35;101056.00;;;7.30
16956;BMP180;8594;52.052;8.354;2023-04-27T04:02:02;101057.00;;;7.40
16956;BMP180;8594;52.052;8.354;2023-04-27T04:04:30;101054.00;;;7.40
16956;BMP180;8594;52.052;8.354;2023-04-27T04:06:57;101059.00;;;7.40
16956;BMP180;8594;52.052;8.354;2023-04-27T04:09:23;101063.00;;;8.00
16956;BMP180;8594;52.052;8.354;2023-04-27T04:11:51;101058.00;;;8.00
16956;BMP180;8594;52.052;8.354;2023-04-27T04:14:17;101060.00;;;8.00
16956;BMP180;8594;52.052;8.354;2023-04-27T04:16:45;101072.00;;;8.00
16956;BMP180;8594;52.052;8.354;2023-04-27T04:19:12;101072.00;;;7.40
16956;BMP180;8594;52.052;8.354;2023-04-27T04:21:39;101075.00;;;7.40
16956;BMP180;8594;52.052;8.354;2023-04-27T04:24:06;101087.00;;;7.50
16956;BMP180;8594;52.052;8.354;2023-04-27T04:26:34;101074.00;;;7.00
16956;BMP180;8594;52.052;8.354;2023-04-27T04:29:01;101074.00;;;7.10
16956;BMP180;8594;52.052;8.354;2023-04-27T04:31:29;101073.00;;;6.90
16956;BMP180;8594;52.052;8.354;2023-04-27T04:33:59;101085.00;;;7.10
16956;BMP180;8594;52.052;8.354;2023-04-27T04:36:26;101087.00;;;7.20
16956;BMP180;8594;52.052;8.354;2023-04-27T04:38:53;101089.00;;;7.40
16956;BMP180;8594;52.052;8.354;2023-04-27T04:41:21;101093.00;;;7.30
16956;BMP180;8594;52.052;8.354;2023-04-27T04:43:48;101099.00;;;7.20
16956;BMP180;8594;52.052;8.354;2023-04-27T04:46:15;101104.00;;;7.40
16956;BMP180;8594;52.052;8.354;2023-04-27T04:48:42;101095.00;;;7.50
16956;BMP180;8594;52.052;8.354;2023-04-27T04:51:10;101093.00;;;7.30
16956;BMP180;8594;52.052;8.354;2023-04-27T04:53:37;101099.00;;;7.60
16956;BMP180;8594;52.052;8.354;2023-04-27T04:56:11;101093.00;;;7.40
16956;BMP180;8594;52.052;8.354;2023-04-27T04:58:39;101102.00;;;7.40
16956;BMP180;8594;52.052;8.354;2023-04-27T05:01:06;101088.00;;;7.20
16956;BMP180;8594;52.052;8.354;2023-04-27T05:03:33;101096.00;;;7.20
16956;BMP180;8594;52.052;8.354;2023-04-27T05:06:00;101089.00;;;8.30
16956;BMP180;8594;52.052;8.354;2023-04-27T05:08:28;101091.00;;;9.30
16956;BMP180;8594;52.052;8.354;2023-04-27T05:10:55;101100.00;;;10.00
16956;BMP180;8594;52.052;8.354;2023-04-27T05:13:22;101093.00;;;9.90
16956;BMP180;8594;52.052;8.354;2023-04-27T05:15:49;101107.00;;;10.60
16956;BMP180;8594;52.052;8.354;2023-04-27T05:18:16;101104.00;;;11.20
16956;BMP180;8594;52.052;8.354;2023-04-27T05:20:43;101115.00;;;11.80
16956;BMP180;8594;52.052;8.354;2023-04-27T05:23:09;101107.00;;;11.80
16956;BMP180;8594;52.052;8.354;2023-04-27T05:25:38;101114.00;;;12.40
16956;BMP180;8594;52.052;8.354;2023-04-27T05:28:07;101118.00;;;12.30
16956;BMP180;8594;52.052;8.354;2023-04-27T05:30:34;101116.00;;;12.90
16956;BMP180;8594;52.052;8.354;2023-04-27T05:33:01;101120.00;;;13.30
16956;BMP180;8594;52.052;8.354;2023-04-27T05:35:28;101114.00;;;12.80
16956;BMP180;8594;52.052;8.354;2023-04-27T05:37:55;101127.00;;;13.40
16956;BMP180;8594;52.052;8.354;2023-04-27T05:40:22;101118.00;;;13.50
16956;BMP180;8594;52.052;8.354;2023-04-27T05:42:50;101121.00;;;14.50
16956;BMP180;8594;52.052;8.354;2023-04-27T05:45:17;101125.00;;;15.10
16956;BMP180;8594;52.052;8.354;2023-04-27T05:47:44;101135.00;;;15.00
16956;BMP180;8594;52.052;8.354;2023-04-27T05:50:11;101136.00;;;15.50
16956;BMP180;8594;52.052;8.354;2023-04-27T05:52:38;101147.00;;;16.10
16956;BMP180;8594;52.052;8.354;2023-04-27T05:55:06;101138.00;;;15.80
16956;BMP180;8594;52.052;8.354;2023-04-27T05:57:33;101143.00;;;14.30
16956;BMP180;8594;52.052;8.354;2023-04-27T06:00:02;101156.00;;;15.00
16956;BMP180;8594;52.052;8.354;2023-04-27T06:02:33;101145.00;;;15.00
16956;BMP180;8594;52.052;8.354;2023-04-27T06:05:00;101155.00;;;15.80
16956;BMP180;8594;52.052;8.354;2023-04-27T06:07:26;101150.00;;;15.40
16956;BMP180;8594;52.052;8.354;2023-04-27T06:09:53;101145.00;;;15.90
16956;BMP180;8594;52.052;8.354;2023-04-27T06:12:20;101147.00;;;15.70
16956;BMP180;8594;52.052;8.354;2023-04-27T06:14:46;101144.00;;;16.50
16956;BMP180;8594;52.052;8.354;2023-04-27T06:17:15;101145.00;;;15.50
16956;BMP180;8594;52.052;8.354;2023-04-27T06:19:41;101152.00;;;16.90
16956;BMP180;8594;52.052;8.354;2023-04-27T06:22:09;101150.00;;;17.60
16956;BMP180;8594;52.052;8.354;2023-04-27T06:24:36;101145.00;;;17.40
16956;BMP180;8594;52.052;8.354;2023-04-27T06:27:03;101142.00;;;16.00
16956;BMP180;8594;52.052;8.354;2023-04-27T06:29:30;101151.00;;;16.80
16956;BMP180;8594;52.052;8.354;2023-04-27T06:31:57;101156.00;;;16.40
16956;BMP180;8594;52.052;8.354;2023-04-27T06:34:25;101161.00;;;17.40
16956;BMP180;8594;52.052;8.354;2023-04-27T06:36:52;101152.00;;;17.70
16956;BMP180;8594;52.052;8.354;2023-04-27T06:39:18;101160.00;;;17.90
16956;BMP180;8594;52.052;8.354;2023-04-27T06:41:45;101161.00;;;17.70
16956;BMP180;8594;52.052;8.354;2023-04-27T06:44:12;101154.00;;;17.50
16956;BMP180;8594;52.052;8.354;2023-04-27T06:46:39;101159.00;;;18.70
16956;BMP180;8594;52.052;8.354;2023-04-27T06:49:06;101169.00;;;17.60
16956;BMP180;8594;52.052;8.354;2023-04-27T06:51:34;101168.00;;;18.40
16956;BMP180;8594;52.052;8.354;2023-04-27T06:54:00;101174.00;;;19.00
16956;BMP180;8594;52.052;8.354;2023-04-27T06:56:28;101168.00;;;18.70
16956;BMP180;8594;52.052;8.354;2023-04-27T06:58:55;101169.00;;;19.20
16956;BMP180;8594;52.052;8.354;2023-04-27T07:01:22;101174.00;;;18.90
16956;BMP180;8594;52.052;8.354;2023-04-27T07:03:49;101174.00;;;17.90
16956;BMP180;8594;52.052;8.354;2023-04-27T07:06:16;101174.00;;;18.50
16956;BMP180;8594;52.052;8.354;2023-04-27T07:08:44;101166.00;;;17.80
16956;BMP180;8594;52.052;8.354;2023-04-27T07:11:11;101161.00;;;18.90
16956;BMP180;8594;52.052;8.354;2023-04-27T07:13:38;101150.00;;;17.40
16956;BMP180;8594;52.052;8.354;2023-04-27T07:16:06;101163.00;;;18.20
16956;BMP180;8594;52.052;8.354;2023-04-27T07:18:33;101157.00;;;17.40
16956;BMP180;8594;52.052;8.354;2023-04-27T07:20:59;101161.00;;;18.50
16956;BMP180;8594;52.052;8.354;2023-04-27T07:23:26;101158.00;;;18.90
16956;BMP180;8594;52.052;8.354;2023-04-27T07:25:55;101163.00;;;19.70
16956;BMP180;8594;52.052;8.354;2023-04-27T07:28:23;101164.00;;;20.00
16956;BMP180;8594;52.052;8.354;2023-04-27T07:30:50;101164.00;;;19.70
16956;BMP180;8594;52.052;8.354;2023-04-27T07:33:17;101161.00;;;18.90
16956;BMP180;8594;52.052;8.354;2023-04-27T07:35:44;101158.00;;;18.20
16956;BMP180;8594;52.052;8.354;2023-04-27T07:38:11;101161.00;;;18.90
16956;BMP180;8594;52.052;8.354;2023-04-27T07:40:37;101156.00;;;20.00
16956;BMP180;8594;52.052;8.354;2023-04-27T07:43:06;101155.00;;;20.10
16956;BMP180;8594;52.052;8.354;2023-04-27T07:45:33;101155.00;;;19.50
16956;BMP180;8594;52.052;8.354;2023-04-27T07:48:04;101162.00;;;19.20
16956;BMP180;8594;52.052;8.354;2023-04-27T07:50:31;101162.00;;;19.20
16956;BMP180;8594;52.052;8.354;2023-04-27T07:52:58;101155.00;;;19.00
16956;BMP180;8594;52.052;8.354;2023-04-27T07:55:25;101152.00;;;18.80
16956;BMP180;8594;52.052;8.354;2023-04-27T07:57:54;101155.00;;;18.30
16956;BMP180;8594;52.052;8.354;2023-04-27T08:00:23;101157.00;;;18.60
16956;BMP180;8594;52.052;8.354;2023-04-27T08:02:52;101160.00;;;18.90
16956;BMP180;8594;52.052;8.354;2023-04-27T08:05:19;101155.00;;;18.40
16956;BMP180;8594;52.052;8.354;2023-04-27T08:07:46;101161.00;;;18.80
16956;BMP180;8594;52.052;8.354;2023-04-27T08:10:14;101157.00;;;19.20
16956;BMP180;8594;52.052;8.354;2023-04-27T08:12:41;101158.00;;;18.30
16956;BMP180;8594;52.052;8.354;2023-04-27T08:15:10;101156.00;;;19.00
16956;BMP180;8594;52.052;8.354;2023-04-27T08:17:38;101168.00;;;19.00
16956;BMP180;8594;52.052;8.354;2023-04-27T08:20:07;101166.00;;;19.30
16956;BMP180;8594;52.052;8.354;2023-04-27T08:22:35;101156.00;;;19.40
16956;BMP180;8594;52.052;8.354;2023-04-27T08:25:03;101161.00;;;18.40
16956;BMP180;8594;52.052;8.354;2023-04-27T08:27:30;101163.00;;;18.60
16956;BMP180;8594;52.052;8.354;2023-04-27T08:29:58;101164.00;;;19.20
16956;BMP180;8594;52.052;8.354;2023-04-27T08:32:26;101164.00;;;19.40
16956;BMP180;8594;52.052;8.354;2023-04-27T08:34:54;101169.00;;;19.10
16956;BMP180;8594;52.052;8.354;2023-04-27T08:37:21;101168.00;;;20.50
16956;BMP180;8594;52.052;8.354;2023-04-27T08:39:48;101160.00;;;18.90
16956;BMP180;8594;52.052;8.354;2023-04-27T08:42:15;101161.00;;;20.00
16956;BMP180;8594;52.052;8.354;2023-04-27T08:44:43;101157.00;;;20.20
16956;BMP180;8594;52.052;8.354;2023-04-27T08:47:11;101156.00;;;21.20
16956;BMP180;8594;52.052;8.354;2023-04-27T08:49:38;101158.00;;;20.90
16956;BMP180;8594;52.052;8.354;2023-04-27T08:52:12;101161.00;;;19.90
16956;BMP180;8594;52.052;8.354;2023-04-27T08:54:39;101160.00;;;19.70
16956;BMP180;8594;52.052;8.354;2023-04-27T08:57:10;101163.00;;;19.90
16956;BMP180;8594;52.052;8.354;2023-04-27T08:59:37;101156.00;;;19.10
16956;BMP180;8594;52.052;8.354;2023-04-27T09:02:04;101160.00;;;20.20
16956;BMP180;8594;52.052;8.354;2023-04-27T09:04:38;101160.00;;;20.50
16956;BMP180;8594;52.052;8.354;2023-04-27T09:07:15;101161.00;;;20.70
16956;BMP180;8594;52.052;8.354;2023-04-27T09:09:44;101164.00;;;21.30
16956;BMP180;8594;52.052;8.354;2023-04-27T09:12:14;101160.00;;;20.30
16956;BMP180;8594;52.052;8.354;2023-04-27T09:14:42;101155.00;;;20.90
16956;BMP180;8594;52.052;8.354;2023-04-27T09:17:09;101150.00;;;21.10
16956;BMP180;8594;52.052;8.354;2023-04-27T09:19:36;101152.00;;;20.40
16956;BMP180;8594;52.052;8.354;2023-04-27T09:22:04;101152.00;;;20.80
16956;BMP180;8594;52.052;8.354;2023-04-27T09:24:34;101157.00;;;21.20
16956;BMP180;8594;52.052;8.354;2023-04-27T09:27:01;101160.00;;;23.00
16956;BMP180;8594;52.052;8.354;2023-04-27T09:29:34;101161.00;;;22.70
16956;BMP180;8594;52.052;8.354;2023-04-27T09:32:12;101167.00;;;22.30
16956;BMP180;8594;52.052;8.354;2023-04-27T09:34:39;101157.00;;;23.10
16956;BMP180;8594;52.052;8.354;2023-04-27T09:37:07;101162.00;;;23.70
16956;BMP180;8594;52.052;8.354;2023-04-27T09:39:37;101164.00;;;22.20
16956;BMP180;8594;52.052;8.354;2023-04-27T09:42:04;101163.00;;;22.70
16956;BMP180;8594;52.052;8.354;2023-04-27T09:44:32;101159.00;;;21.90
16956;BMP180;8594;52.052;8.354;2023-04-27T09:47:00;101158.00;;;22.50
16956;BMP180;8594;52.052;8.354;2023-04-27T09:49:27;101155.00;;;21.20
16956;BMP180;8594;52.052;8.354;2023-04-27T09:51:55;101154.00;;;21.30
16956;BMP180;8594;52.052;8.354;2023-04-27T09:54:27;101149.00;;;20.40
16956;BMP180;8594;52.052;8.354;2023-04-27T09:57:11;101148.00;;;20.20
16956;BMP180;8594;52.052;8.354;2023-04-27T10:00:04;101136.00;;;19.50
16956;BMP180;8594;52.052;8.354;2023-04-27T10:02:48;101143.00;;;20.20
16956;BMP180;8594;52.052;8.354;2023-04-27T10:05:38;101142.00;;;21.10
16956;BMP180;8594;52.052;8.354;2023-04-27T10:08:09;101134.00;;;20.00
16956;BMP180;8594;52.052;8.354;2023-04-27T10:10:46;101130.00;;;19.80
16956;BMP180;8594;52.052;8.354;2023-04-27T10:13:22;101130.00;;;20.80
16956;BMP180;8594;52.052;8.354;2023-04-27T10:15:49;101142.00;;;19.60
16956;BMP180;8594;52.052;8.354;2023-04-27T10:18:28;101138.00;;;21.30
16956;BMP180;8594;52.052;8.354;2023-04-27T10:20:55;101141.00;;;20.90
16956;BMP180;8594;52.052;8.354;2023-04-27T10:23:24;101130.00;;;20.40
16956;BMP180;8594;52.052;8.354;2023-04-27T10:25:53;101125.00;;;19.20
16956;BMP180;8594;52.052;8.354;2023-04-27T10:28:21;101126.00;;;19.50
16956;BMP180;8594;52.052;8.354;2023-04-27T10:30:48;101136.00;;;19.30
16956;BMP180;8594;52.052;8.354;2023-04-27T10:33:17;101126.00;;;19.40
16956;BMP180;8594;52.052;8.354;2023-04-27T10:35:54;101135.00;;;19.40
16956;BMP180;8594;52.052;8.354;2023-04-27T10:38:27;101118.00;;;19.30
16956;BMP180;8594;52.052;8.354;2023-04-27T10:40:56;101112.00;;;19.50
16956;BMP180;8594;52.052;8.354;2023-04-27T10:43:27;101110.00;;;19.30
16956;BMP180;8594;52.052;8.354;2023-04-27T10:45:54;101114.00;;;19.90
16956;BMP180;8594;52.052;8.354;2023-04-27T10:48:21;101124.00;;;19.40
16956;BMP180;8594;52.052;8.354;2023-04-27T10:50:50;101114.00;;;20.00
16956;BMP180;8594;52.052;8.354;2023-04-27T10:53:17;101122.00;;;18.80
16956;BMP180;8594;52.052;8.354;2023-04-27T10:55:44;101119.00;;;21.00
16956;BMP180;8594;52.052;8.354;2023-04-27T10:58:11;101121.00;;;21.00
16956;BMP180;8594;52.052;8.354;2023-04-27T11:00:40;101117.00;;;21.50
16956;BMP180;8594;52.052;8.354;2023-04-27T11:03:12;101117.00;;;21.80
16956;BMP180;8594;52.052;8.354;2023-04-27T11:05:41;101116.00;;;22.30
16956;BMP180;8594;52.052;8.354;2023-04-27T11:08:11;101103.00;;;21.60
16956;BMP180;8594;52.052;8.354;2023-04-27T11:10:39;101101.00;;;21.00
16956;BMP180;8594;52.052;8.354;2023-04-27T11:13:08;101085.00;;;21.20
16956;BMP180;8594;52.052;8.354;2023-04-27T11:15:45;101096.00;;;21.40
16956;BMP180;8594;52.052;8.354;2023-04-27T11:18:12;101088.00;;;21.10
16956;BMP180;8594;52.052;8.354;2023-04-27T11:20:40;101086.00;;;20.30
16956;BMP180;8594;52.052;8.354;2023-04-27T11:23:07;101081.00;;;20.00
16956;BMP180;8594;52.052;8.354;2023-04-27T11:25:35;101078.00;;;20.30
16956;BMP180;8594;52.052;8.354;2023-04-27T11:28:03;101082.00;;;20.80
16956;BMP180;8594;52.052;8.354;2023-04-27T11:30:30;101072.00;;;20.40
16956;BMP180;8594;52.052;8.354;2023-04-27T11:33:07;101077.00;;;20.20
16956;BMP180;8594;52.052;8.354;2023-04-27T11:35:34;101075.00;;;20.00
16956;BMP180;8594;52.052;8.354;2023-04-27T11:38:01;101076.00;;;19.40
16956;BMP180;8594;52.052;8.354;2023-04-27T11:40:28;101075.00;;;19.20
16956;BMP180;8594;52.052;8.354;2023-04-27T11:42:57;101078.00;;;19.80
16956;BMP180;8594;52.052;8.354;2023-04-27T11:45:25;101076.00;;;19.90
16956;BMP180;8594;52.052;8.354;2023-04-27T11:47:53;101070.00;;;20.00
16956;BMP180;8594;52.052;8.354;2023-04-27T11:50:23;101073.00;;;20.20
16956;BMP180;8594;52.052;8.354;2023-04-27T11:52:51;101067.00;;;19.00
16956;BMP180;8594;52.052;8.354;2023-04-27T11:55:19;101074.00;;;20.20
16956;BMP180;8594;52.052;8.354;2023-04-27T11:57:47;101075.00;;;20.40
16956;BMP180;8594;52.052;8.354;2023-04-27T12:00:15;101072.00;;;18.70
16956;BMP180;8594;52.052;8.354;2023-04-27T12:02:43;101073.00;;;19.30
16956;BMP180;8594;52.052;8.354;2023-04-27T12:05:10;101083.00;;;17.70
16956;BMP180;8594;52.052;8.354;2023-04-27T12:07:38;101078.00;;;18.60
16956;BMP180;8594;52.052;8.354;2023-04-27T12:10:07;101076.00;;;18.30
16956;BMP180;8594;52.052;8.354;2023-04-27T12:12:34;101079.00;;;17.70
16956;BMP180;8594;52.052;8.354;2023-04-27T12:15:01;101075.00;;;18.40
16956;BMP180;8594;52.052;8.354;2023-04-27T12:17:28;101067.00;;;19.90
16956;BMP180;8594;52.052;8.354;2023-04-27T12:19:55;101072.00;;;19.30
16956;BMP180;8594;52.052;8.354;2023-04-27T12:22:22;101071.00;;;19.30
16956;BMP180;8594;52.052;8.354;2023-04-27T12:24:50;101068.00;;;20.00
16956;BMP180;8594;52.052;8.354;2023-04-27T12:27:17;101069.00;;;19.40
16956;BMP180;8594;52.052;8.354;2023-04-27T12:29:44;101073.00;;;19.20
16956;BMP180;8594;52.052;8.354;2023-04-27T12:32:11;101063.00;;;19.10
16956;BMP180;8594;52.052;8.354;2023-04-27T12:34:38;101053.00;;;18.20
16956;BMP180;8594;52.052;8.354;2023-04-27T12:37:05;101056.00;;;19.20
16956;BMP180;8594;52.052;8.354;2023-04-27T12:39:32;101059.00;;;18.20
16956;BMP180;8594;52.052;8.354;2023-04-27T12:42:00;101058.00;;;17.50
16956;BMP180;8594;52.052;8.354;2023-04-27T12:44:27;101063.00;;;17.80
16956;BMP180;8594;52.052;8.354;2023-04-27T12:46:55;101054.00;;;17.90
16956;BMP180;8594;52.052;8.354;2023-04-27T12:49:22;101051.00;;;18.20
16956;BMP180;8594;52.052;8.354;2023-04-27T12:51:51;101053.00;;;17.90
16956;BMP180;8594;52.052;8.354;2023-04-27T12:54:18;101066.00;;;17.50
16956;BMP180;8594;52.052;8.354;2023-04-27T12:56:45;101059.00;;;17.20
16956;BMP180;8594;52.052;8.354;2023-04-27T12:59:14;101066.00;;;17.00
16956;BMP180;8594;52.052;8.354;2023-04-27T13:01:41;101070.00;;;17.70
16956;BMP180;8594;52.052;8.354;2023-04-27T13:04:08;101065.00;;;17.60
16956;BMP180;8594;52.052;8.354;2023-04-27T13:06:34;101056.00;;;18.30
16956;BMP180;8594;52.052;8.354;2023-04-27T13:09:02;101061.00;;;18.50
16956;BMP180;8594;52.052;8.354;2023-04-27T13:11:31;101057.00;;;18.40
16956;BMP180;8594;52.052;8.354;2023-04-27T13:13:58;101065.00;;;18.20
16956;BMP180;8594;52.052;8.354;2023-04-27T13:16:27;101059.00;;;17.80
16956;BMP180;8594;52.052;8.354;2023-04-27T13:18:54;101057.00;;;19.10
16956;BMP180;8594;52.052;8.354;2023-04-27T13:21:21;101060.00;;;19.40
16956;BMP180;8594;52.052;8.354;2023-04-27T13:23:48;101059.00;;;19.80
16956;BMP180;8594;52.052;8.354;2023-04-27T13:26:15;101056.00;;;18.50
16956;BMP180;8594;52.052;8.354;2023-04-27T13:28:42;101058.00;;;19.40
16956;BMP180;8594;52.052;8.354;2023-04-27T13:31:09;101042.00;;;19.50
16956;BMP180;8594;52.052;8.354;2023-04-27T13:33:40;101049.00;;;19.90
16956;BMP180;8594;52.052;8.354;2023-04-27T13:36:07;101046.00;;;19.50
16956;BMP180;8594;52.052;8.354;2023-04-27T13:38:34;101042.00;;;19.10
16956;BMP180;8594;52.052;8.354;2023-04-27T13:41:01;101038.00;;;18.60
16956;BMP180;8594;52.052;8.354;2023-04-27T13:43:28;101035.00;;;18.40
16956;BMP180;8594;52.052;8.354;2023-04-27T13:45:57;101029.00;;;17.90
16956;BMP180;8594;52.052;8.354;2023-04-27T13:48:24;101031.00;;;17.50
16956;BMP180;8594;52.052;8.354;2023-04-27T13:50:53;101033.00;;;17.00
16956;BMP180;8594;52.052;8.354;2023-04-27T13:53:20;101025.00;;;17.20
16956;BMP180;8594;52.052;8.354;2023-04-27T13:55:50;101023.00;;;16.60
16956;BMP180;8594;52.052;8.354;2023-04-27T13:58:17;101024.00;;;16.80
16956;BMP180;8594;52.052;8.354;2023-04-27T14:00:44;101030.00;;;17.30
16956;BMP180;8594;52.052;8.354;2023-04-27T14:03:13;101035.00;;;16.90
16956;BMP180;8594;52.052;8.354;2023-04-27T14:05:41;101024.00;;;17.10
16956;BMP180;8594;52.052;8.354;2023-04-27T14:08:10;101022.00;;;17.40
16956;BMP180;8594;52.052;8.354;2023-04-27T14:10:37;101019.00;;;17.30
16956;BMP180;8594;52.052;8.354;2023-04-27T14:13:04;101010.00;;;18.00
16956;BMP180;8594;52.052;8.354;2023-04-27T14:15:31;101008.00;;;18.60
16956;BMP180;8594;52.052;8.354;2023-04-27T14:18:03;101005.00;;;18.10